Terminal Aerodrome Forecast
Issued by NWS

Home | Current Version | Previous Version | Graphics & Text | Print | Product List | Glossary Off
Versions: 1 2 3 4 5 6 7 8 9 10 11 12 13 14 15 16 17 18 19 20 21 22 23 24 25 26 27 28 29 30 31

000
FTUS43 KDDC 171727
TAFHYS
TAF
KHYS 171727Z 1718/1818 32016G26KT P6SM SKC
     FM172300 02006KT P6SM SKC
     FM180400 12010KT P6SM SKC
     FM180900 17015G23KT P6SM FEW250 WS020/20055KT
     FM181600 20026G37KT P6SM FEW250=

USA.gov is the U.S. government's official web portal to all federal, state and local government web resources and services.